createdAt,value
2019-04-27T00:01:29.756Z,8.14
2019-04-27T00:05:51.137Z,8.09
2019-04-27T00:10:00.279Z,7.99
2019-04-27T00:14:03.816Z,7.92
2019-04-27T00:18:34.533Z,7.86
2019-04-27T00:22:47.060Z,7.78
2019-04-27T00:26:49.443Z,7.81
2019-04-27T00:30:53.100Z,7.76
2019-04-27T00:34:56.891Z,7.59
2019-04-27T00:39:05.400Z,7.51
2019-04-27T00:43:09.328Z,7.44
2019-04-27T00:47:11.682Z,7.34
2019-04-27T00:51:14.559Z,7.23
2019-04-27T00:55:16.941Z,7.19
2019-04-27T00:59:39.754Z,7.13
2019-04-27T01:04:10.599Z,7.03
2019-04-27T01:08:13.918Z,6.93
2019-04-27T01:12:16.728Z,6.77
2019-04-27T01:16:22.021Z,6.64
2019-04-27T01:20:22.976Z,6.58
2019-04-27T01:24:25.211Z,6.61
2019-04-27T01:28:31.895Z,6.49
2019-04-27T01:32:35.344Z,6.45
2019-04-27T01:36:39.134Z,6.46
2019-04-27T01:40:41.705Z,6.52
2019-04-27T01:44:44.019Z,6.50
2019-04-27T01:48:46.579Z,6.50
2019-04-27T01:52:48.878Z,6.49
2019-04-27T01:56:51.423Z,6.57
2019-04-27T02:01:11.105Z,6.42
2019-04-27T02:05:41.268Z,6.46
2019-04-27T02:09:43.578Z,6.26
2019-04-27T02:13:46.058Z,6.19
2019-04-27T02:17:49.013Z,6.22
2019-04-27T02:21:52.602Z,6.19
2019-04-27T02:25:54.865Z,6.09
2019-04-27T02:30:22.579Z,6.00
2019-04-27T02:34:30.258Z,5.99
2019-04-27T02:38:31.775Z,5.88
2019-04-27T02:42:42.377Z,5.77
2019-04-27T02:46:44.812Z,5.69
2019-04-27T02:50:49.951Z,5.64
2019-04-27T02:54:52.541Z,5.57
2019-04-27T02:58:55.225Z,5.56
2019-04-27T03:03:02.439Z,5.64
2019-04-27T03:07:04.902Z,5.55
2019-04-27T03:11:07.117Z,5.60
2019-04-27T03:15:23.039Z,5.71
2019-04-27T03:19:35.635Z,5.76
2019-04-27T03:23:37.872Z,5.88
2019-04-27T03:27:41.529Z,6.05
2019-04-27T03:31:47.317Z,6.15
2019-04-27T03:35:51.617Z,6.18
2019-04-27T03:39:52.334Z,6.18
2019-04-27T03:43:55.075Z,6.26
2019-04-27T03:48:00.198Z,6.39
2019-04-27T03:52:10.692Z,6.60
2019-04-27T03:56:39.352Z,6.74
2019-04-27T04:00:40.939Z,6.84
2019-04-27T04:04:43.246Z,7.02
2019-04-27T04:08:45.417Z,7.17
2019-04-27T04:13:13.101Z,7.33
2019-04-27T04:17:16.712Z,7.55
2019-04-27T04:21:19.436Z,7.77
2019-04-27T04:25:21.799Z,7.96
2019-04-27T04:29:23.903Z,8.17
2019-04-27T04:33:27.319Z,8.38
2019-04-27T04:37:29.765Z,8.54
2019-04-27T04:41:40.617Z,8.78
2019-04-27T04:45:52.709Z,9.01
2019-04-27T04:50:10.367Z,9.23
2019-04-27T04:53:59.863Z,9.48
2019-04-27T04:58:02.317Z,9.75
2019-04-27T05:02:04.612Z,10.08
2019-04-27T05:06:08.699Z,10.46
2019-04-27T05:10:10.986Z,10.82
2019-04-27T05:14:13.104Z,11.29
2019-04-27T05:18:16.360Z,11.69
2019-04-27T05:22:19.539Z,12.11
2019-04-27T05:26:21.952Z,12.39
2019-04-27T05:30:25.230Z,12.57
2019-04-27T05:34:29.261Z,12.88
2019-04-27T05:38:56.601Z,13.04
2019-04-27T05:43:00.263Z,13.30
2019-04-27T05:47:21.550Z,13.56
2019-04-27T05:51:23.778Z,13.88
2019-04-27T05:55:26.118Z,14.00
2019-04-27T05:59:29.796Z,14.12
2019-04-27T06:03:35.388Z,14.31
2019-04-27T06:07:37.417Z,14.47
2019-04-27T06:11:40.084Z,14.78
2019-04-27T06:15:42.385Z,14.99
2019-04-27T06:19:44.618Z,15.08
2019-04-27T06:23:48.717Z,15.37
2019-04-27T06:27:51.050Z,15.46
2019-04-27T06:31:54.984Z,15.50
2019-04-27T06:35:57.198Z,15.66
2019-04-27T06:39:59.900Z,15.90
2019-04-27T06:44:02.307Z,16.03
2019-04-27T06:48:04.524Z,16.08
2019-04-27T06:52:08.577Z,16.18
2019-04-27T06:56:10.635Z,16.14
2019-04-27T07:00:13.062Z,16.25
2019-04-27T07:04:15.168Z,16.62
2019-04-27T07:08:18.638Z,16.62
2019-04-27T07:12:21.008Z,16.58
2019-04-27T07:16:23.204Z,16.55
2019-04-27T07:20:25.427Z,16.93
2019-04-27T07:24:29.186Z,17.10
2019-04-27T07:28:31.439Z,17.48
2019-04-27T07:32:33.841Z,17.50
2019-04-27T07:36:36.508Z,17.63
2019-04-27T07:40:41.631Z,17.84
2019-04-27T07:44:47.483Z,17.81
2019-04-27T07:48:50.950Z,17.85
2019-04-27T07:52:55.052Z,17.80
2019-04-27T07:56:58.765Z,18.14
2019-04-27T08:01:01.045Z,18.24
2019-04-27T08:05:03.492Z,18.46
2019-04-27T08:09:06.793Z,18.67
2019-04-27T08:13:09.591Z,18.95
2019-04-27T08:17:11.917Z,18.96
2019-04-27T08:21:14.241Z,18.83
2019-04-27T08:25:16.297Z,18.96
2019-04-27T08:29:52.893Z,19.08
2019-04-27T08:33:55.030Z,19.21
2019-04-27T08:37:59.379Z,19.64
2019-04-27T08:42:02.065Z,19.50
2019-04-27T08:46:06.606Z,19.40
2019-04-27T08:50:09.207Z,19.46
2019-04-27T08:54:11.713Z,19.50
2019-04-27T08:58:13.950Z,19.72
2019-04-27T09:02:16.101Z,19.74
2019-04-27T09:06:19.033Z,19.78
2019-04-27T09:10:38.663Z,20.14
2019-04-27T09:14:45.224Z,20.23
2019-04-27T09:18:49.828Z,20.28
2019-04-27T09:22:54.056Z,20.36
2019-04-27T09:26:59.611Z,20.39
2019-04-27T09:31:02.832Z,20.18
2019-04-27T09:35:05.923Z,20.30
2019-04-27T09:39:11.742Z,20.41
2019-04-27T09:43:15.718Z,20.36
2019-04-27T09:47:18.308Z,20.53
2019-04-27T09:51:20.666Z,20.48
2019-04-27T09:55:22.960Z,20.45
2019-04-27T09:59:26.618Z,20.57
2019-04-27T10:03:28.838Z,20.54
2019-04-27T10:07:31.183Z,20.65
2019-04-27T10:11:33.319Z,20.75
2019-04-27T10:15:35.742Z,20.93
2019-04-27T10:19:37.972Z,21.07
2019-04-27T10:23:40.097Z,21.38
2019-04-27T10:27:45.714Z,21.37
2019-04-27T10:31:48.297Z,21.30
2019-04-27T10:35:51.331Z,21.26
2019-04-27T10:39:53.455Z,21.46
2019-04-27T10:43:55.766Z,21.27
2019-04-27T10:47:58.222Z,21.10
2019-04-27T10:52:00.529Z,21.03
2019-04-27T10:56:02.839Z,21.38
2019-04-27T11:00:06.766Z,21.75
2019-04-27T11:04:28.766Z,21.52
2019-04-27T11:08:30.716Z,21.34
2019-04-27T11:12:32.630Z,21.30
2019-04-27T11:16:35.937Z,21.61
2019-04-27T11:20:38.304Z,21.63
2019-04-27T11:24:40.563Z,21.85
2019-04-27T11:28:46.339Z,21.77
2019-04-27T11:32:48.807Z,21.94
2019-04-27T11:37:10.102Z,21.92
2019-04-27T11:41:12.342Z,21.91
2019-04-27T11:45:15.028Z,22.05
2019-04-27T11:49:19.200Z,21.59
2019-04-27T11:53:23.198Z,21.76
2019-04-27T11:57:25.641Z,21.87
2019-04-27T12:01:29.033Z,21.67
2019-04-27T12:05:31.266Z,21.82
2019-04-27T12:09:33.386Z,22.11
2019-04-27T12:13:35.915Z,22.06
2019-04-27T12:17:38.290Z,22.11
2019-04-27T12:21:40.370Z,21.94
2019-04-27T12:25:42.288Z,22.11
2019-04-27T12:30:26.070Z,22.10
2019-04-27T12:34:28.663Z,22.24
2019-04-27T12:38:30.884Z,22.20
2019-04-27T12:42:33.336Z,22.29
2019-04-27T12:46:35.553Z,22.11
2019-04-27T12:50:38.083Z,22.30
2019-04-27T12:54:52.326Z,22.63
2019-04-27T12:58:58.808Z,22.30
2019-04-27T13:03:00.707Z,22.27
2019-04-27T13:07:02.598Z,22.48
2019-04-27T13:11:05.945Z,22.37
2019-04-27T13:15:09.280Z,22.17
2019-04-27T13:19:11.115Z,22.33
2019-04-27T13:23:13.067Z,22.54
2019-04-27T13:27:16.623Z,22.70
2019-04-27T13:31:18.607Z,22.41
2019-04-27T13:35:20.529Z,22.53
2019-04-27T13:39:22.447Z,22.51
2019-04-27T13:43:32.442Z,22.66
2019-04-27T13:48:00.571Z,22.83
2019-04-27T13:52:16.098Z,22.69
2019-04-27T13:56:18.204Z,22.74
2019-04-27T14:00:21.074Z,22.60
2019-04-27T14:04:24.135Z,22.81
2019-04-27T14:08:26.108Z,22.91
2019-04-27T14:12:28.532Z,22.76
2019-04-27T14:16:30.435Z,22.88
2019-04-27T14:20:32.335Z,22.86
2019-04-27T14:24:40.437Z,23.08
2019-04-27T14:28:42.589Z,23.36
2019-04-27T14:32:44.518Z,23.02
2019-04-27T14:36:46.440Z,22.93
2019-04-27T14:40:50.322Z,26.01
2019-04-27T14:44:51.953Z,26.01
2019-04-27T14:48:53.788Z,25.53
2019-04-27T14:52:55.908Z,25.32
2019-04-27T14:56:58.959Z,24.92
2019-04-27T15:01:01.167Z,25.85
2019-04-27T15:05:03.122Z,26.68
2019-04-27T15:09:06.978Z,25.51
2019-04-27T15:13:08.946Z,23.08
2019-04-27T15:17:12.801Z,24.47
2019-04-27T15:21:14.958Z,25.79
2019-04-27T15:25:16.973Z,25.35
2019-04-27T15:29:25.046Z,24.60
2019-04-27T15:33:46.738Z,25.59
2019-04-27T15:37:57.138Z,25.64
2019-04-27T15:42:07.868Z,23.57
2019-04-27T15:46:05.103Z,24.83
2019-04-27T15:50:07.989Z,24.86
2019-04-27T15:54:11.353Z,24.08
2019-04-27T15:58:21.004Z,23.14
2019-04-27T16:02:18.555Z,21.44
2019-04-27T16:06:20.628Z,20.93
2019-04-27T16:10:22.705Z,20.62
2019-04-27T16:14:24.838Z,20.10
2019-04-27T16:18:31.031Z,19.57
2019-04-27T16:22:30.406Z,19.15
2019-04-27T16:26:32.264Z,18.82
2019-04-27T16:30:34.272Z,18.52
2019-04-27T16:34:37.858Z,18.27
2019-04-27T16:38:58.635Z,18.07
2019-04-27T16:43:00.782Z,17.91
2019-04-27T16:47:02.901Z,17.69
2019-04-27T16:51:06.658Z,17.51
2019-04-27T16:55:09.239Z,17.32
2019-04-27T16:59:38.652Z,17.12
2019-04-27T17:03:14.764Z,16.93
2019-04-27T17:07:18.814Z,16.72
2019-04-27T17:11:20.285Z,16.44
2019-04-27T17:15:42.279Z,16.05
2019-04-27T17:19:52.043Z,15.85
2019-04-27T17:23:56.938Z,15.52
2019-04-27T17:28:04.295Z,15.18
2019-04-27T17:32:08.873Z,14.97
2019-04-27T17:36:12.158Z,14.77
2019-04-27T17:40:15.480Z,14.47
2019-04-27T17:44:22.733Z,14.16
2019-04-27T17:48:21.600Z,13.94
2019-04-27T17:52:23.900Z,13.82
2019-04-27T17:56:35.353Z,13.52
2019-04-27T18:00:33.061Z,13.38
2019-04-27T18:04:37.730Z,13.13
2019-04-27T18:08:40.074Z,12.91
2019-04-27T18:12:40.523Z,12.87
2019-04-27T18:16:42.553Z,12.57
2019-04-27T18:20:44.480Z,12.41
2019-04-27T18:25:09.543Z,12.30
2019-04-27T18:29:10.706Z,11.93
2019-04-27T18:33:12.601Z,11.96
2019-04-27T18:37:18.495Z,11.84
2019-04-27T18:41:18.435Z,11.72
2019-04-27T18:45:20.527Z,11.52
2019-04-27T18:49:44.275Z,11.32
2019-04-27T18:53:46.163Z,11.18
2019-04-27T18:57:50.965Z,11.00
2019-04-27T19:01:52.101Z,10.90
2019-04-27T19:05:53.980Z,10.66
2019-04-27T19:09:55.798Z,10.40
2019-04-27T19:13:59.038Z,10.30
2019-04-27T19:18:01.583Z,10.26
2019-04-27T19:22:03.932Z,10.15
2019-04-27T19:26:33.752Z,9.85
2019-04-27T19:30:40.204Z,9.81
2019-04-27T19:34:42.005Z,9.78
2019-04-27T19:38:43.987Z,9.56
2019-04-27T19:42:45.831Z,9.46
2019-04-27T19:46:49.317Z,9.34
2019-04-27T19:50:51.459Z,9.36
2019-04-27T19:54:53.276Z,9.29
2019-04-27T19:58:58.184Z,9.27
2019-04-27T20:03:01.672Z,9.14
2019-04-27T20:07:04.616Z,8.96
2019-04-27T20:11:06.822Z,9.09
2019-04-27T20:15:09.137Z,10.47
2019-04-27T20:19:11.451Z,11.40
2019-04-27T20:23:13.452Z,11.93
2019-04-27T20:27:15.318Z,12.18
2019-04-27T20:31:17.218Z,12.15
2019-04-27T20:35:19.241Z,12.21
2019-04-27T20:39:22.442Z,12.23
2019-04-27T20:43:24.866Z,12.20
2019-04-27T20:47:27.103Z,12.14
2019-04-27T20:51:50.364Z,12.04
2019-04-27T20:55:51.115Z,12.14
2019-04-27T20:59:53.567Z,11.95
2019-04-27T21:03:58.134Z,11.87
2019-04-27T21:08:03.008Z,11.84
2019-04-27T21:12:05.266Z,11.68
2019-04-27T21:16:07.537Z,11.68
2019-04-27T21:20:11.399Z,11.63
2019-04-27T21:24:14.064Z,11.46
2019-04-27T21:28:18.880Z,11.38
2019-04-27T21:32:20.147Z,11.39
2019-04-27T21:36:22.359Z,11.37
2019-04-27T21:40:24.563Z,11.31
2019-04-27T21:44:28.329Z,11.18
2019-04-27T21:48:31.237Z,11.02
2019-04-27T21:52:35.281Z,10.97
2019-04-27T21:56:37.457Z,10.85
2019-04-27T22:00:57.558Z,10.81
2019-04-27T22:05:01.397Z,10.60
2019-04-27T22:09:07.447Z,10.46
2019-04-27T22:13:09.849Z,10.43
2019-04-27T22:17:13.119Z,10.34
2019-04-27T22:21:16.386Z,10.34
2019-04-27T22:25:21.709Z,10.21
2019-04-27T22:29:24.315Z,10.17
2019-04-27T22:33:26.633Z,9.99
2019-04-27T22:37:29.079Z,9.90
2019-04-27T22:41:48.738Z,9.84
2019-04-27T22:45:51.128Z,9.73
2019-04-27T22:49:53.726Z,9.64
2019-04-27T22:53:56.034Z,9.51
2019-04-27T22:58:04.220Z,9.47
2019-04-27T23:02:31.853Z,9.35
2019-04-27T23:06:34.138Z,9.27
2019-04-27T23:10:36.592Z,9.20
2019-04-27T23:14:38.616Z,9.03
2019-04-27T23:18:41.356Z,9.08
2019-04-27T23:22:43.567Z,8.98
2019-04-27T23:26:45.911Z,8.95
2019-04-27T23:31:12.220Z,8.87
2019-04-27T23:35:14.837Z,8.74
2019-04-27T23:39:16.901Z,8.64
2019-04-27T23:43:19.087Z,8.50
2019-04-27T23:47:20.983Z,8.43
2019-04-27T23:51:47.919Z,8.36
2019-04-27T23:55:50.271Z,8.28
2019-04-27T23:59:52.479Z,8.19
